Time;durP1;ratioP1;P1;durP2;ratioP2;P2;SDS_P1;SDS_P2;PMS_P1;PMS_P2;Temp;Humidity;BMP_temperature;BMP_pressure;BME280_temperature;BME280_humidity;BME280_pressure;Samples;Min_cycle;Max_cycle;Signal;HPM_P1;HPM_P2
2021/06/21 00:00:42;;;;;;;8.75;5.03;;;;;;;19.45;68.32;94410.06;2975898;39;20056;-79
2021/06/21 00:02:44;;;;;;;7.10;4.38;;;;;;;19.42;68.07;94411.34;2972421;40;20052;-81
2021/06/21 00:04:45;;;;;;;7.95;4.82;;;;;;;19.44;67.66;94414.59;2969022;40;20065;-81
2021/06/21 00:06:47;;;;;;;9.93;4.45;;;;;;;19.40;67.87;94410.75;2968180;40;20136;-80
2021/06/21 00:08:49;;;;;;;6.78;4.72;;;;;;;19.40;67.68;94405.44;2968141;40;20100;-80
2021/06/21 00:10:51;;;;;;;10.48;4.47;;;;;;;19.41;67.61;94411.53;2967816;40;20453;-80
2021/06/21 00:12:53;;;;;;;4.75;3.55;;;;;;;19.41;67.04;94407.03;2969830;40;20056;-81
2021/06/21 00:14:54;;;;;;;7.47;4.85;;;;;;;19.39;67.36;94405.63;2966349;40;20060;-82
2021/06/21 00:16:56;;;;;;;6.07;4.20;;;;;;;19.13;68.04;94396.91;2975738;39;20071;-80
2021/06/21 00:18:58;;;;;;;5.78;4.00;;;;;;;19.02;68.51;94395.78;2974814;40;20059;-70
2021/06/21 00:21:00;;;;;;;6.13;3.95;;;;;;;18.94;68.49;94389.94;2974820;39;20076;-71
2021/06/21 00:23:01;;;;;;;5.35;3.85;;;;;;;18.89;68.68;94395.09;2976699;39;20302;-71
2021/06/21 00:25:04;;;;;;;5.43;3.70;;;;;;;18.89;68.82;94390.59;2975736;40;20137;-71
2021/06/21 00:27:06;;;;;;;7.93;3.67;;;;;;;18.93;68.58;94391.78;2967541;40;20172;-72
2021/06/21 00:29:08;;;;;;;5.97;3.83;;;;;;;18.94;68.41;94382.78;2976705;39;20080;-71
2021/06/21 00:31:10;;;;;;;6.05;3.63;;;;;;;19.00;68.34;94379.25;2976274;39;20408;-71
2021/06/21 00:33:12;;;;;;;6.28;3.92;;;;;;;19.02;68.41;94374.53;2976588;39;20403;-72
2021/06/21 00:35:15;;;;;;;5.87;3.47;;;;;;;19.03;68.00;94376.16;2976862;39;20136;-71
2021/06/21 00:37:17;;;;;;;5.35;3.80;;;;;;;19.01;68.02;94377.41;2977018;39;20085;-71
2021/06/21 00:39:19;;;;;;;5.95;3.67;;;;;;;19.02;67.95;94379.84;2976806;40;20060;-72
2021/06/21 00:41:21;;;;;;;4.38;3.75;;;;;;;19.03;68.11;94370.03;2976778;39;20060;-72
2021/06/21 00:43:22;;;;;;;6.55;3.97;;;;;;;19.06;68.03;94363.47;2976701;39;20286;-70
2021/06/21 00:45:24;;;;;;;4.47;3.33;;;;;;;19.03;67.97;94365.53;2976024;39;20525;-71
2021/06/21 00:47:27;;;;;;;4.82;3.42;;;;;;;19.04;68.21;94371.69;2975580;40;20141;-72
2021/06/21 00:49:28;;;;;;;5.53;3.90;;;;;;;19.05;67.63;94377.78;2975807;40;20111;-71
2021/06/21 00:51:31;;;;;;;6.30;4.57;;;;;;;19.05;67.90;94369.84;2976913;39;20148;-71
2021/06/21 00:53:33;;;;;;;6.47;4.10;;;;;;;19.03;68.09;94378.81;2977042;39;20420;-72
2021/06/21 00:55:35;;;;;;;7.00;4.18;;;;;;;18.95;68.26;94372.97;2976777;39;20060;-72
2021/06/21 00:57:37;;;;;;;7.10;4.35;;;;;;;18.91;68.61;94382.44;2976967;39;20068;-72
2021/06/21 00:59:39;;;;;;;6.72;4.05;;;;;;;18.88;68.69;94385.50;2976925;39;20071;-69
2021/06/21 01:01:41;;;;;;;5.95;4.07;;;;;;;18.88;68.62;94374.88;2974667;40;20060;-71
2021/06/21 01:03:43;;;;;;;6.03;4.10;;;;;;;18.81;69.04;94388.22;2976599;40;20056;-71
2021/06/21 01:05:45;;;;;;;7.03;4.13;;;;;;;18.64;69.42;94393.22;2975486;40;20119;-70
2021/06/21 01:07:47;;;;;;;6.03;4.80;;;;;;;18.48;70.36;94394.56;2975729;40;20184;-71
2021/06/21 01:09:53;;;;;;;7.18;4.43;;;;;;;18.26;71.53;94388.78;2976741;39;20140;-72
2021/06/21 01:12:04;;;;;;;6.63;4.95;;;;;;;17.99;72.98;94382.84;2976429;39;20065;-72
2021/06/21 01:14:14;;;;;;;6.35;4.60;;;;;;;17.64;74.49;94391.16;2967207;40;20465;-71
2021/06/21 01:16:18;;;;;;;7.93;4.65;;;;;;;17.65;74.80;94384.00;2975368;40;20103;-81
2021/06/21 01:18:23;;;;;;;;;;;;;;;17.72;74.62;94384.78;2977682;39;20102;-81
2021/06/21 01:20:58;;;;;;;7.40;4.72;;;;;;;17.81;74.25;94379.03;2967977;40;19937;-81
2021/06/21 01:23:22;;;;;;;6.40;4.80;;;;;;;17.96;73.38;94376.16;2977374;40;20052;-80
2021/06/21 01:25:31;;;;;;;7.38;5.13;;;;;;;18.04;73.08;94375.06;2977603;39;20415;-81
2021/06/21 01:28:20;;;;;;;6.75;4.72;;;;;;;18.10;72.96;94384.81;2977649;40;20530;-83
2021/06/21 01:30:39;;;;;;;5.93;4.82;;;;;;;18.16;72.84;94388.47;2976120;40;20139;-81
2021/06/21 01:33:14;;;;;;;8.20;5.32;;;;;;;17.93;73.87;94379.19;2972777;39;20499;-71
2021/06/21 01:35:24;;;;;;;11.55;5.78;;;;;;;17.83;74.10;94386.78;2963511;40;20352;-72
2021/06/21 01:37:27;;;;;;;8.05;4.90;;;;;;;17.93;73.91;94376.56;2974228;39;20067;-71
2021/06/21 01:39:32;;;;;;;6.55;4.88;;;;;;;17.91;73.89;94383.91;2966384;40;20356;-71
2021/06/21 01:41:38;;;;;;;6.65;5.13;;;;;;;17.86;73.93;94381.09;2975515;40;20059;-70
2021/06/21 01:43:41;;;;;;;8.20;4.97;;;;;;;17.85;74.24;94394.53;2970939;40;20068;-70
2021/06/21 01:45:43;;;;;;;7.57;5.25;;;;;;;17.87;74.21;94395.13;2972215;40;20148;-73
2021/06/21 01:47:47;;;;;;;7.75;5.43;;;;;;;17.74;74.87;94395.97;2958220;40;20089;-71
2021/06/21 01:49:51;;;;;;;8.38;5.15;;;;;;;17.51;75.74;94399.97;2971872;40;20044;-71
2021/06/21 01:51:59;;;;;;;8.40;5.50;;;;;;;17.34;76.43;94398.78;2973718;40;20052;-70
2021/06/21 01:54:01;;;;;;;7.20;5.13;;;;;;;17.24;77.13;94403.69;2971274;39;20176;-70
2021/06/21 01:56:15;;;;;;;7.20;5.45;;;;;;;17.30;76.99;94395.72;2971372;39;20059;-70
2021/06/21 01:58:17;;;;;;;7.40;4.82;;;;;;;17.45;76.62;94392.03;2973315;39;20052;-71
2021/06/21 02:00:19;;;;;;;8.25;5.70;;;;;;;17.60;75.90;94393.41;2975012;39;20063;-71
2021/06/21 02:02:23;;;;;;;9.63;5.05;;;;;;;17.70;75.12;94387.66;2975942;40;20052;-71
2021/06/21 02:04:27;;;;;;;7.35;4.90;;;;;;;17.81;74.67;94389.63;2974055;39;20060;-70
2021/06/21 02:06:30;;;;;;;6.95;5.20;;;;;;;17.93;74.21;94389.81;2974434;39;20081;-70
2021/06/21 02:08:33;;;;;;;7.93;4.82;;;;;;;18.04;73.55;94387.50;2974560;39;20401;-70
2021/06/21 02:10:35;;;;;;;6.70;4.90;;;;;;;18.14;73.22;94388.69;2965356;40;20112;-71
2021/06/21 02:12:37;;;;;;;7.38;4.50;;;;;;;18.20;72.87;94389.66;2963719;40;20314;-71
2021/06/21 02:14:39;;;;;;;7.80;4.97;;;;;;;18.28;72.60;94394.69;2966628;39;20080;-71
2021/06/21 02:16:41;;;;;;;7.80;5.30;;;;;;;18.29;72.12;94390.22;2966517;39;20132;-70
2021/06/21 02:18:44;;;;;;;5.05;4.13;;;;;;;18.29;71.86;94391.03;2966402;39;20048;-70
2021/06/21 02:20:47;;;;;;;6.82;5.22;;;;;;;18.29;71.70;94396.34;2969689;39;20302;-70
2021/06/21 02:22:49;;;;;;;7.50;4.70;;;;;;;18.31;71.21;94399.59;2970175;39;20312;-70
2021/06/21 02:24:53;;;;;;;8.85;4.20;;;;;;;18.31;71.00;94391.63;2973299;39;20286;-73
2021/06/21 02:26:55;;;;;;;6.38;4.13;;;;;;;18.30;70.77;94400.59;2973359;39;20064;-71
2021/06/21 02:29:00;;;;;;;4.25;3.85;;;;;;;18.34;70.33;94395.69;2973890;39;20405;-70
2021/06/21 02:33:26;;;;;;;5.50;3.90;;;;;;;18.25;70.03;94395.13;2966714;40;20438;-71
2021/06/21 02:35:28;;;;;;;6.00;3.47;;;;;;;18.27;70.21;94398.38;2972939;39;20423;-71
2021/06/21 02:37:30;;;;;;;6.43;4.03;;;;;;;18.27;70.16;94392.28;2967061;39;20497;-70
2021/06/21 02:39:32;;;;;;;5.75;4.25;;;;;;;18.29;70.03;94398.97;2961783;40;20133;-71
2021/06/21 02:41:34;;;;;;;5.35;4.05;;;;;;;18.30;70.32;94405.09;2967563;39;20056;-71
2021/06/21 02:43:36;;;;;;;6.38;4.07;;;;;;;18.31;70.13;94407.53;2967531;39;20052;-70
2021/06/21 02:45:38;;;;;;;7.45;4.30;;;;;;;18.34;69.83;94404.44;2965905;39;20124;-71
2021/06/21 02:47:42;;;;;;;5.80;4.40;;;;;;;18.35;69.97;94397.31;2973305;39;20064;-71
2021/06/21 02:49:44;;;;;;;;;;;;;;;18.36;69.97;94398.94;2970299;39;20058;-70
2021/06/21 02:51:55;;;;;;;5.63;3.95;;;;;;;18.34;69.97;94401.00;2971560;39;20231;-71
2021/06/21 02:53:58;;;;;;;5.97;3.90;;;;;;;18.28;70.02;94397.34;2966722;40;20442;-72
2021/06/21 02:56:11;;;;;;;5.40;4.35;;;;;;;18.31;70.10;94396.94;2972230;39;20059;-71
2021/06/21 02:58:25;;;;;;;6.93;3.70;;;;;;;18.29;69.89;94385.72;2971302;39;20090;-71
2021/06/21 03:00:28;;;;;;;6.68;4.38;;;;;;;18.28;69.75;94378.78;2960449;40;20432;-70
2021/06/21 03:02:30;;;;;;;5.35;3.63;;;;;;;18.27;69.44;94371.06;2964645;40;20376;-71
2021/06/21 03:04:32;;;;;;;6.82;4.00;;;;;;;18.26;69.64;94372.06;2973149;39;20052;-71
2021/06/21 03:06:35;;;;;;;4.28;3.55;;;;;;;18.27;69.20;94371.88;2967893;40;20136;-70
2021/06/21 03:08:38;;;;;;;6.82;3.85;;;;;;;18.24;69.20;94371.47;2975710;39;20060;-70
2021/06/21 03:10:40;;;;;;;8.40;4.07;;;;;;;18.15;69.87;94376.22;2973981;39;20421;-72
2021/06/21 03:12:44;;;;;;;8.00;4.30;;;;;;;18.07;70.17;94381.78;2968905;39;20052;-71
2021/06/21 03:14:46;;;;;;;7.85;3.97;;;;;;;17.83;70.73;94362.13;2970283;39;20341;-70
2021/06/21 03:16:49;;;;;;;4.85;3.13;;;;;;;17.49;71.38;94380.81;2973382;39;20068;-71
2021/06/21 03:18:52;;;;;;;5.93;3.80;;;;;;;17.14;72.46;94383.78;2974874;40;20137;-70
2021/06/21 03:20:57;;;;;;;6.50;3.80;;;;;;;17.01;72.96;94370.53;2975349;40;20394;-72
2021/06/21 03:23:00;;;;;;;6.70;3.80;;;;;;;17.01;73.00;94375.03;2974521;40;20169;-71
2021/06/21 03:25:02;;;;;;;8.43;3.67;;;;;;;16.92;73.01;94385.03;2974955;39;20060;-71
2021/06/21 03:27:07;;;;;;;4.80;3.08;;;;;;;16.78;73.51;94389.50;2975181;39;20389;-70
2021/06/21 03:29:17;;;;;;;4.25;3.40;;;;;;;16.66;73.89;94391.94;2973345;39;20147;-71
2021/06/21 03:31:20;;;;;;;4.63;3.50;;;;;;;16.83;73.29;94387.06;2973441;39;20142;-70
2021/06/21 03:33:22;;;;;;;8.80;3.35;;;;;;;17.03;72.81;94387.03;2958335;40;20118;-70
2021/06/21 03:35:26;;;;;;;4.57;3.40;;;;;;;17.23;72.01;94388.81;2975111;39;20393;-71
2021/06/21 03:37:28;;;;;;;5.90;3.40;;;;;;;17.36;71.48;94381.66;2975554;40;20374;-71
2021/06/21 03:39:30;;;;;;;4.63;3.13;;;;;;;17.48;70.97;94378.38;2975139;39;20068;-71
2021/06/21 03:41:32;;;;;;;3.55;2.85;;;;;;;17.60;70.63;94385.44;2975139;39;20297;-72
2021/06/21 03:43:34;;;;;;;5.32;3.40;;;;;;;17.74;70.56;94382.72;2974963;39;20092;-72
2021/06/21 03:45:37;;;;;;;4.93;3.50;;;;;;;17.89;70.25;94380.66;2973141;40;20051;-72
2021/06/21 03:47:39;;;;;;;5.45;3.33;;;;;;;18.01;69.60;94378.97;2968348;40;20149;-71
2021/06/21 03:49:44;;;;;;;9.07;3.70;;;;;;;18.16;69.02;94375.22;2974229;39;20390;-72
2021/06/21 03:51:46;;;;;;;5.10;3.47;;;;;;;18.26;68.95;94369.41;2971012;39;20049;-71
2021/06/21 03:53:48;;;;;;;5.18;4.03;;;;;;;18.32;68.31;94369.38;2967155;39;20370;-71
2021/06/21 03:55:50;;;;;;;5.38;3.67;;;;;;;18.41;68.17;94380.53;2965530;39;20404;-70
2021/06/21 03:57:54;;;;;;;5.97;4.13;;;;;;;18.50;67.90;94386.38;2969173;40;20165;-70
2021/06/21 03:59:56;;;;;;;9.02;3.83;;;;;;;18.55;67.11;94395.34;2976445;39;20053;-72
2021/06/21 04:01:58;;;;;;;5.40;3.63;;;;;;;18.62;66.78;94403.25;2975837;39;20385;-73
2021/06/21 04:03:59;;;;;;;4.40;3.50;;;;;;;18.65;66.64;94399.34;2975627;39;20156;-70
2021/06/21 04:06:01;;;;;;;8.77;4.35;;;;;;;18.69;66.82;94401.38;2976249;39;20127;-71
2021/06/21 04:08:08;;;;;;;9.02;4.38;;;;;;;18.70;66.90;94412.78;2969847;39;20426;-71
2021/06/21 04:10:13;;;;;;;5.35;4.00;;;;;;;18.70;66.81;94405.63;2975788;39;20088;-71
2021/06/21 04:12:16;;;;;;;7.03;4.30;;;;;;;18.74;66.68;94403.38;2975683;40;20164;-69
2021/06/21 04:14:17;;;;;;;6.20;3.33;;;;;;;18.75;66.64;94397.81;2976047;39;20044;-72
2021/06/21 04:16:19;;;;;;;5.10;3.78;;;;;;;18.75;66.41;94391.72;2975154;39;20338;-71
2021/06/21 04:18:21;;;;;;;7.03;3.90;;;;;;;18.81;66.30;94394.34;2974388;40;20406;-71
2021/06/21 04:20:23;;;;;;;8.35;4.20;;;;;;;18.86;66.55;94396.31;2971837;39;20076;-70
2021/06/21 04:22:25;;;;;;;7.70;4.47;;;;;;;18.79;66.32;94399.03;2976403;39;20441;-72
2021/06/21 04:24:27;;;;;;;8.32;4.13;;;;;;;18.74;66.88;94400.72;2977626;39;20055;-72
2021/06/21 04:26:29;;;;;;;7.88;4.43;;;;;;;18.73;67.19;94397.22;2975628;39;20060;-72
2021/06/21 04:28:30;;;;;;;13.13;5.15;;;;;;;18.61;67.71;94397.13;2975271;40;20052;-72
2021/06/21 04:30:32;;;;;;;9.50;5.88;;;;;;;18.44;68.90;94396.03;2969214;39;20393;-70
2021/06/21 04:32:36;;;;;;;9.15;5.60;;;;;;;18.30;69.60;94397.94;2976113;39;20088;-73
2021/06/21 04:34:38;;;;;;;;;;;;;;;18.13;70.53;94407.44;2976162;39;20367;-71
2021/06/21 04:36:39;;;;;;;10.88;6.47;;;;;;;18.11;70.93;94406.84;2969144;40;20252;-73
2021/06/21 04:38:41;;;;;;;11.95;6.32;;;;;;;18.19;71.05;94401.28;2976318;39;20132;-72
2021/06/21 04:40:43;;;;;;;10.52;7.00;;;;;;;18.38;70.70;94404.84;2975771;39;20129;-71
2021/06/21 04:42:45;;;;;;;14.45;6.80;;;;;;;18.54;70.40;94414.09;2974873;39;20057;-71
2021/06/21 04:44:47;;;;;;;8.65;6.03;;;;;;;18.65;70.18;94410.78;2973731;39;20053;-83
2021/06/21 04:46:49;;;;;;;11.40;6.82;;;;;;;18.53;70.56;94417.81;2968163;39;20056;-83
2021/06/21 04:48:51;;;;;;;8.18;6.00;;;;;;;18.50;70.58;94426.16;2975903;40;20060;-73
2021/06/21 04:50:53;;;;;;;7.60;6.53;;;;;;;18.34;71.23;94428.31;2974679;39;20036;-72
2021/06/21 04:52:55;;;;;;;15.25;7.03;;;;;;;18.41;71.19;94418.50;2975536;39;20096;-71
2021/06/21 04:55:01;;;;;;;10.52;6.78;;;;;;;18.42;71.50;94422.75;2976232;39;20052;-71
2021/06/21 04:57:03;;;;;;;8.30;6.32;;;;;;;18.42;71.63;94430.72;2976283;39;20152;-72
2021/06/21 04:59:05;;;;;;;10.10;6.50;;;;;;;18.32;71.74;94425.06;2975007;39;20060;-71
2021/06/21 05:01:07;;;;;;;8.40;6.55;;;;;;;18.36;72.06;94423.59;2974558;39;20052;-71
2021/06/21 05:03:09;;;;;;;11.73;6.78;;;;;;;18.44;72.37;94425.22;2975671;39;20060;-71
2021/06/21 05:05:11;;;;;;;12.18;7.40;;;;;;;18.53;71.91;94428.41;2974885;39;20054;-70
2021/06/21 05:07:14;;;;;;;12.20;7.47;;;;;;;18.68;71.28;94433.41;2966506;40;20314;-72
2021/06/21 05:09:15;;;;;;;13.82;7.70;;;;;;;18.85;71.08;94433.72;2975395;40;20378;-72
2021/06/21 05:11:17;;;;;;;8.48;5.95;;;;;;;19.01;70.10;94430.50;2974381;39;20105;-72
2021/06/21 05:13:19;;;;;;;8.68;6.40;;;;;;;19.15;69.71;94425.91;2975093;39;20083;-75
2021/06/21 05:15:21;;;;;;;15.10;7.22;;;;;;;19.24;69.85;94421.94;2973914;39;20094;-74
2021/06/21 05:17:23;;;;;;;12.95;7.57;;;;;;;19.40;69.23;94433.81;2966962;40;20060;-70
2021/06/21 05:19:25;;;;;;;12.57;7.57;;;;;;;19.54;68.71;94426.53;2958320;40;20306;-72
2021/06/21 05:21:27;;;;;;;12.70;6.70;;;;;;;19.29;68.60;94424.72;2975182;39;20055;-72
2021/06/21 05:23:29;;;;;;;14.00;8.55;;;;;;;19.26;68.60;94430.50;2976163;39;20068;-72
2021/06/21 05:25:33;;;;;;;15.25;8.55;;;;;;;19.32;69.27;94436.78;2975099;39;20467;-70
2021/06/21 05:27:34;;;;;;;15.25;7.82;;;;;;;19.27;68.96;94436.59;2974960;39;20054;-71
2021/06/21 05:29:36;;;;;;;16.17;7.60;;;;;;;19.25;69.25;94447.44;2975202;40;20124;-70
2021/06/21 05:31:39;;;;;;;12.93;7.72;;;;;;;19.37;68.85;94444.88;2973427;40;20428;-72
2021/06/21 05:33:43;;;;;;;12.60;7.70;;;;;;;19.35;68.15;94449.59;2976256;40;20401;-71
2021/06/21 05:35:44;;;;;;;11.68;7.15;;;;;;;19.24;68.59;94443.16;2974643;39;20063;-74
2021/06/21 05:37:47;;;;;;;13.77;8.10;;;;;;;19.07;69.61;94444.75;2974602;40;20062;-72
2021/06/21 05:43:12;;;;;;;9.98;7.20;;;;;;;19.20;69.48;94448.09;2974873;40;20505;-72
2021/06/21 05:45:16;;;;;;;13.00;7.85;;;;;;;19.42;68.67;94447.69;2970713;39;20468;-72
2021/06/21 05:47:19;;;;;;;9.52;7.22;;;;;;;19.64;68.51;94438.28;2972058;39;20048;-71
2021/06/21 05:49:20;;;;;;;10.00;7.97;;;;;;;19.81;67.34;94433.19;2974588;39;20162;-72
2021/06/21 05:51:22;;;;;;;12.07;7.18;;;;;;;19.67;67.20;94444.19;2981145;39;20080;-82
2021/06/21 05:53:24;;;;;;;10.85;7.53;;;;;;;19.43;67.85;94444.00;2972851;39;20071;-85
2021/06/21 05:55:26;;;;;;;10.10;7.18;;;;;;;19.24;68.14;94435.19;2977437;39;20440;-84
2021/06/21 05:57:29;;;;;;;12.70;7.88;;;;;;;19.08;69.29;94439.25;2974963;39;20358;-81
2021/06/21 05:59:30;;;;;;;10.40;7.43;;;;;;;19.27;69.04;94434.75;2971638;40;20170;-84
2021/06/21 06:01:32;;;;;;;10.57;7.65;;;;;;;19.47;68.25;94442.53;2970441;39;20456;-85
2021/06/21 06:03:34;;;;;;;10.38;7.60;;;;;;;19.52;67.54;94440.03;2975002;39;20067;-82
2021/06/21 06:05:36;;;;;;;9.82;7.30;;;;;;;19.44;68.22;94433.19;2974055;40;20051;-83
2021/06/21 06:07:38;;;;;;;12.00;8.18;;;;;;;19.53;67.98;94431.03;2981019;39;20060;-83
2021/06/21 06:09:39;;;;;;;11.85;7.68;;;;;;;19.61;67.46;94437.88;2975580;39;20055;-83
2021/06/21 06:11:41;;;;;;;11.93;7.63;;;;;;;19.76;66.97;94435.69;2977118;39;20060;-83
2021/06/21 06:13:43;;;;;;;10.38;7.78;;;;;;;19.64;67.73;94432.94;2977492;39;20060;-82
2021/06/21 06:15:47;;;;;;;14.30;7.20;;;;;;;19.46;68.25;94432.13;2977374;40;20160;-82
2021/06/21 06:17:50;;;;;;;13.73;7.78;;;;;;;19.52;68.20;94433.91;2974125;39;20305;-71
2021/06/21 06:19:52;;;;;;;13.10;7.50;;;;;;;19.76;68.19;94433.03;2973862;39;20152;-73
2021/06/21 06:21:54;;;;;;;13.88;8.98;;;;;;;19.92;67.03;94434.31;2969808;39;20072;-74
2021/06/21 06:23:57;;;;;;;21.00;8.52;;;;;;;20.16;66.90;94431.75;2971402;39;20469;-74
2021/06/21 06:25:59;;;;;;;107.25;15.38;;;;;;;20.42;66.41;94431.38;2971896;39;20402;-73
2021/06/21 06:28:01;;;;;;;19.67;8.18;;;;;;;20.59;65.44;94430.78;2972834;39;20140;-73
2021/06/21 06:30:05;;;;;;;14.10;7.07;;;;;;;20.58;64.33;94431.78;2970067;39;20057;-74
2021/06/21 06:32:07;;;;;;;9.57;7.68;;;;;;;20.71;64.16;94439.56;2973847;39;20055;-73
2021/06/21 06:34:09;;;;;;;10.45;7.85;;;;;;;20.78;63.76;94440.31;2969709;40;20052;-73
2021/06/21 06:36:10;;;;;;;12.35;7.57;;;;;;;20.47;64.61;94433.34;2966252;39;20125;-73
2021/06/21 06:38:12;;;;;;;12.10;8.57;;;;;;;20.45;64.91;94432.78;2969726;39;20133;-71
2021/06/21 06:40:16;;;;;;;13.02;7.30;;;;;;;20.67;64.58;94433.09;2973577;39;20283;-73
2021/06/21 06:42:17;;;;;;;19.95;8.68;;;;;;;20.62;64.68;94427.66;2974309;39;20068;-73
2021/06/21 06:44:20;;;;;;;12.68;7.35;;;;;;;20.76;64.38;94428.28;2976581;39;20136;-84
2021/06/21 06:46:22;;;;;;;19.50;7.80;;;;;;;20.91;64.41;94427.81;2977807;39;20048;-82
2021/06/21 06:48:24;;;;;;;15.68;7.97;;;;;;;21.04;64.53;94424.94;2974089;39;20052;-83
2021/06/21 06:50:26;;;;;;;12.93;7.28;;;;;;;21.27;63.88;94432.94;2977188;40;20145;-83
2021/06/21 06:52:27;;;;;;;10.95;7.40;;;;;;;21.36;63.50;94432.56;2974918;39;20413;-82
2021/06/21 06:54:49;;;;;;;10.32;6.63;;;;;;;20.99;63.33;94428.31;2979499;39;20057;-81
2021/06/21 06:57:00;;;;;;;11.30;8.75;;;;;;;20.95;63.72;94431.63;2978268;39;20100;-83
2021/06/21 06:59:03;;;;;;;11.88;7.68;;;;;;;20.94;64.50;94422.03;2977455;39;20150;-81
2021/06/21 07:01:05;;;;;;;20.52;8.18;;;;;;;21.18;63.80;94430.84;2970588;39;20060;-84
2021/06/21 07:03:08;;;;;;;11.98;7.47;;;;;;;21.26;63.15;94422.50;2977926;39;20088;-86
2021/06/21 07:05:11;;;;;;;11.43;7.70;;;;;;;21.32;63.49;94426.13;2973128;40;20078;-82
2021/06/21 07:07:12;;;;;;;12.98;7.10;;;;;;;21.36;62.70;94430.75;2971343;40;20220;-82
2021/06/21 07:09:18;;;;;;;11.02;6.90;;;;;;;21.63;62.52;94431.06;2969251;39;20067;-73
2021/06/21 07:11:20;;;;;;;12.13;7.00;;;;;;;21.65;61.80;94429.00;2967019;39;20079;-72
2021/06/21 07:13:22;;;;;;;11.68;7.20;;;;;;;21.65;61.49;94423.66;2966806;40;20052;-71
2021/06/21 07:15:23;;;;;;;10.60;6.20;;;;;;;21.70;61.99;94425.63;2966197;39;20052;-74
2021/06/21 07:17:26;;;;;;;9.48;6.35;;;;;;;21.92;60.80;94425.81;2969857;39;20044;-72
2021/06/21 07:19:28;;;;;;;11.40;7.70;;;;;;;21.85;61.33;94427.78;2968677;39;20052;-72
2021/06/21 07:21:30;;;;;;;11.77;7.68;;;;;;;21.94;61.30;94430.91;2973269;39;20052;-73
2021/06/21 07:23:32;;;;;;;14.02;7.22;;;;;;;21.98;61.44;94424.84;2965868;40;20431;-74
2021/06/21 07:25:34;;;;;;;11.60;7.53;;;;;;;22.11;60.99;94429.09;2971563;39;20405;-73
2021/06/21 07:27:36;;;;;;;14.05;8.90;;;;;;;21.93;61.49;94435.44;2971695;39;20156;-73
2021/06/21 07:29:38;;;;;;;10.30;7.55;;;;;;;21.88;61.62;94435.34;2975292;39;20089;-71
2021/06/21 07:31:40;;;;;;;11.15;7.57;;;;;;;21.95;61.96;94437.88;2966575;40;20371;-77
2021/06/21 07:33:42;;;;;;;12.45;8.95;;;;;;;21.98;61.25;94442.72;2978919;39;20158;-82
2021/06/21 07:35:43;;;;;;;13.20;7.60;;;;;;;22.04;61.42;94439.09;2967583;40;20052;-82
2021/06/21 07:37:45;;;;;;;8.45;6.72;;;;;;;22.27;60.83;94433.72;2975907;40;20120;-84
2021/06/21 07:39:47;;;;;;;11.30;7.00;;;;;;;22.27;60.94;94435.59;2977507;39;20068;-83
2021/06/21 07:41:49;;;;;;;11.80;6.65;;;;;;;22.37;61.64;94440.28;2972519;40;20423;-83
2021/06/21 07:43:51;;;;;;;11.40;6.47;;;;;;;22.20;61.45;94440.19;2972856;39;20349;-84
2021/06/21 07:45:52;;;;;;;11.65;6.15;;;;;;;22.41;61.61;94442.28;2977002;39;20060;-73
2021/06/21 07:47:57;;;;;;;12.93;6.07;;;;;;;22.58;60.69;94431.59;2974965;39;20444;-73
2021/06/21 07:49:59;;;;;;;17.67;6.75;;;;;;;22.69;60.71;94428.09;2973075;39;20052;-82
2021/06/21 07:52:01;;;;;;;15.00;6.18;;;;;;;22.84;60.31;94427.53;2977127;39;20077;-82
2021/06/21 07:54:03;;;;;;;12.23;7.07;;;;;;;22.76;59.79;94435.09;2971362;40;20099;-83
2021/06/21 07:56:05;;;;;;;14.75;7.22;;;;;;;22.64;60.62;94438.66;2977381;39;20433;-83
2021/06/21 07:58:08;;;;;;;9.65;5.63;;;;;;;22.80;59.60;94426.38;2977319;40;20062;-84
2021/06/21 08:00:10;;;;;;;10.30;6.18;;;;;;;22.82;59.71;94421.63;2976067;40;20381;-86
2021/06/21 08:02:12;;;;;;;10.60;5.78;;;;;;;23.03;59.36;94417.41;2973953;40;20044;-84
2021/06/21 08:04:14;;;;;;;9.60;5.47;;;;;;;23.14;58.38;94421.06;2974188;40;20052;-83
2021/06/21 08:06:16;;;;;;;8.40;6.03;;;;;;;23.42;58.73;94419.34;2970109;39;20084;-83
2021/06/21 08:08:18;;;;;;;11.75;5.25;;;;;;;23.56;58.17;94417.13;2978352;40;20097;-83
2021/06/21 08:10:20;;;;;;;9.20;4.75;;;;;;;23.75;57.59;94409.59;2975433;39;20435;-85
2021/06/21 08:12:28;;;;;;;14.13;5.82;;;;;;;23.92;57.37;94415.75;2975407;39;20169;-82
2021/06/21 08:14:29;;;;;;;12.43;5.70;;;;;;;23.96;56.75;94416.84;2976986;40;20055;-82
2021/06/21 08:16:32;;;;;;;14.35;5.72;;;;;;;24.03;56.24;94416.69;2969227;39;20056;-81
2021/06/21 08:18:37;;;;;;;7.03;4.15;;;;;;;24.05;55.92;94420.72;2968615;39;20309;-82
2021/06/21 08:20:42;;;;;;;8.93;3.95;;;;;;;23.88;56.27;94418.13;2974056;40;20058;-82
2021/06/21 08:22:44;;;;;;;7.45;4.93;;;;;;;23.88;56.10;94439.50;2971103;39;20140;-81
2021/06/21 08:24:46;;;;;;;6.35;4.38;;;;;;;23.88;56.31;94422.66;2975429;39;20074;-84
2021/06/21 08:26:48;;;;;;;6.03;4.30;;;;;;;23.99;55.68;94413.69;2960807;40;20145;-85
2021/06/21 08:28:49;;;;;;;7.43;3.55;;;;;;;24.00;54.92;94411.81;2975711;40;20369;-81
2021/06/21 08:30:51;;;;;;;6.10;4.28;;;;;;;24.09;55.15;94419.19;2971421;40;20084;-81
2021/06/21 08:32:53;;;;;;;6.63;3.13;;;;;;;24.16;53.99;94412.81;2968629;39;20040;-84
2021/06/21 08:34:55;;;;;;;7.18;4.45;;;;;;;24.20;53.65;94421.94;2974863;39;20048;-80
2021/06/21 08:36:56;;;;;;;5.28;3.10;;;;;;;24.44;53.51;94415.25;2969059;39;20160;-83
2021/06/21 08:38:58;;;;;;;5.00;3.80;;;;;;;24.70;52.14;94415.53;2967276;39;20081;-82
2021/06/21 08:41:03;;;;;;;4.47;2.92;;;;;;;24.69;50.36;94411.22;2962166;40;20064;-81
2021/06/21 08:43:05;;;;;;;10.43;3.33;;;;;;;24.65;49.23;94415.47;2971794;39;20509;-83
2021/06/21 08:45:08;;;;;;;6.57;2.83;;;;;;;24.38;48.77;94415.47;2972943;39;20053;-74
2021/06/21 08:47:13;;;;;;;15.52;3.85;;;;;;;24.24;50.02;94410.50;2966337;39;20056;-73
2021/06/21 08:49:17;;;;;;;11.05;3.75;;;;;;;24.53;50.40;94399.56;2967755;39;20321;-73
2021/06/21 08:51:19;;;;;;;6.10;3.00;;;;;;;24.77;50.25;94408.09;2973553;39;20068;-72
2021/06/21 08:53:21;;;;;;;6.18;2.95;;;;;;;24.90;50.47;94404.97;2972404;39;20346;-71
2021/06/21 08:55:22;;;;;;;4.88;3.45;;;;;;;24.93;48.88;94406.38;2972818;39;20155;-71
2021/06/21 08:57:24;;;;;;;8.85;4.07;;;;;;;24.71;49.71;94409.09;2970113;39;20069;-72
2021/06/21 08:59:26;;;;;;;9.30;3.83;;;;;;;25.02;50.19;94412.84;2974256;39;20113;-72
2021/06/21 09:01:27;;;;;;;10.75;4.10;;;;;;;25.14;49.10;94418.03;2969738;39;20167;-73
2021/06/21 09:03:32;;;;;;;6.90;4.10;;;;;;;25.11;49.00;94410.50;2975062;39;20086;-72
2021/06/21 09:05:34;;;;;;;10.00;4.53;;;;;;;25.11;49.28;94405.16;2971312;39;20060;-71
2021/06/21 09:07:37;;;;;;;6.97;3.45;;;;;;;25.19;49.04;94412.72;2967927;39;20082;-72
2021/06/21 09:09:38;;;;;;;7.35;2.60;;;;;;;25.01;48.91;94402.38;2974400;39;20353;-72
2021/06/21 09:11:46;;;;;;;6.25;3.63;;;;;;;25.10;49.17;94417.75;2968637;39;20152;-72
2021/06/21 09:13:50;;;;;;;8.32;3.92;;;;;;;25.35;48.74;94416.34;2972615;39;20064;-73
2021/06/21 09:15:56;;;;;;;6.72;2.97;;;;;;;25.19;48.20;94410.03;2968684;39;20060;-70
2021/06/21 09:17:59;;;;;;;4.07;2.88;;;;;;;25.33;48.33;94411.22;2974219;39;20058;-82
2021/06/21 09:20:04;;;;;;;5.25;2.95;;;;;;;25.34;48.06;94417.41;2969596;40;20052;-82
2021/06/21 09:22:27;;;;;;;6.20;2.80;;;;;;;25.50;47.92;94411.06;2979413;39;20068;-82
2021/06/21 09:24:29;;;;;;;4.00;2.05;;;;;;;25.67;46.00;94413.56;2971194;39;20088;-73
2021/06/21 09:26:32;;;;;;;3.40;2.42;;;;;;;25.74;45.87;94413.34;2967388;40;20074;-72
2021/06/21 09:28:35;;;;;;;9.60;2.85;;;;;;;25.61;46.56;94411.94;2968734;39;20132;-73
2021/06/21 09:30:53;;;;;;;4.40;2.40;;;;;;;25.28;46.94;94405.84;2969017;39;20054;-72
2021/06/21 09:32:56;;;;;;;4.65;2.95;;;;;;;25.31;46.47;94410.66;2969772;39;20456;-72
2021/06/21 09:34:58;;;;;;;3.20;2.00;;;;;;;24.99;44.19;94420.59;2968188;39;20129;-73
2021/06/21 09:37:08;;;;;;;3.22;2.20;;;;;;;25.23;44.16;94407.66;2967959;39;20473;-72
2021/06/21 09:39:23;;;;;;;2.75;2.20;;;;;;;25.43;43.26;94413.19;2969991;39;20094;-74
2021/06/21 09:41:25;;;;;;;6.13;2.42;;;;;;;25.63;43.33;94409.78;2967242;39;20048;-73
2021/06/21 09:43:33;;;;;;;2.80;2.15;;;;;;;25.85;43.23;94415.00;2972826;39;20076;-73
2021/06/21 09:45:36;;;;;;;3.50;2.00;;;;;;;25.77;42.89;94423.56;2965674;40;20356;-74